sensor_id;sensor_type;location;lat;lon;timestamp;P1;durP1;ratioP1;P2;durP2;ratioP2
52508;SDS011;38420;53.150;6.370;2023-12-20T00:01:32;18.05;;;2.83;;
52508;SDS011;38420;53.150;6.370;2023-12-20T00:03:57;16.73;;;2.90;;
52508;SDS011;38420;53.150;6.370;2023-12-20T00:06:23;17.95;;;2.83;;
52508;SDS011;38420;53.150;6.370;2023-12-20T00:08:49;16.30;;;2.88;;
52508;SDS011;38420;53.150;6.370;2023-12-20T00:11:14;13.02;;;3.08;;
52508;SDS011;38420;53.150;6.370;2023-12-20T00:13:40;14.40;;;2.95;;
52508;SDS011;38420;53.150;6.370;2023-12-20T00:16:05;11.45;;;2.60;;
52508;SDS011;38420;53.150;6.370;2023-12-20T00:18:31;11.52;;;2.70;;
52508;SDS011;38420;53.150;6.370;2023-12-20T00:20:56;15.90;;;2.55;;
52508;SDS011;38420;53.150;6.370;2023-12-20T00:23:22;13.65;;;2.95;;
52508;SDS011;38420;53.150;6.370;2023-12-20T00:25:48;14.77;;;2.70;;
52508;SDS011;38420;53.150;6.370;2023-12-20T00:28:14;17.15;;;2.47;;
52508;SDS011;38420;53.150;6.370;2023-12-20T00:30:39;12.85;;;2.55;;
52508;SDS011;38420;53.150;6.370;2023-12-20T00:33:05;10.38;;;2.60;;
52508;SDS011;38420;53.150;6.370;2023-12-20T00:35:31;13.48;;;2.83;;
52508;SDS011;38420;53.150;6.370;2023-12-20T00:37:57;16.35;;;2.85;;
52508;SDS011;38420;53.150;6.370;2023-12-20T00:40:23;18.98;;;3.85;;
52508;SDS011;38420;53.150;6.370;2023-12-20T00:42:49;15.77;;;3.10;;
52508;SDS011;38420;53.150;6.370;2023-12-20T00:45:14;16.02;;;2.90;;
52508;SDS011;38420;53.150;6.370;2023-12-20T00:47:40;16.90;;;2.55;;
52508;SDS011;38420;53.150;6.370;2023-12-20T00:50:06;24.33;;;3.15;;
52508;SDS011;38420;53.150;6.370;2023-12-20T00:52:32;17.05;;;2.92;;
52508;SDS011;38420;53.150;6.370;2023-12-20T00:54:57;14.20;;;3.50;;
52508;SDS011;38420;53.150;6.370;2023-12-20T00:57:23;14.27;;;2.58;;
52508;SDS011;38420;53.150;6.370;2023-12-20T00:59:49;11.10;;;2.15;;
52508;SDS011;38420;53.150;6.370;2023-12-20T01:02:14;16.92;;;3.10;;
52508;SDS011;38420;53.150;6.370;2023-12-20T01:04:40;12.82;;;2.80;;
52508;SDS011;38420;53.150;6.370;2023-12-20T01:07:05;17.27;;;3.25;;
52508;SDS011;38420;53.150;6.370;2023-12-20T01:09:31;16.77;;;4.57;;
52508;SDS011;38420;53.150;6.370;2023-12-20T01:11:57;17.58;;;3.22;;
52508;SDS011;38420;53.150;6.370;2023-12-20T01:14:22;17.52;;;3.92;;
52508;SDS011;38420;53.150;6.370;2023-12-20T01:16:48;16.05;;;3.25;;
52508;SDS011;38420;53.150;6.370;2023-12-20T01:19:13;24.52;;;5.35;;
52508;SDS011;38420;53.150;6.370;2023-12-20T01:21:39;13.65;;;2.90;;
52508;SDS011;38420;53.150;6.370;2023-12-20T01:24:05;17.60;;;3.58;;
52508;SDS011;38420;53.150;6.370;2023-12-20T01:26:31;19.73;;;3.97;;
52508;SDS011;38420;53.150;6.370;2023-12-20T01:28:56;20.40;;;4.28;;
52508;SDS011;38420;53.150;6.370;2023-12-20T01:31:22;19.30;;;3.60;;
52508;SDS011;38420;53.150;6.370;2023-12-20T01:33:48;20.58;;;3.50;;
52508;SDS011;38420;53.150;6.370;2023-12-20T01:36:13;14.68;;;4.10;;
52508;SDS011;38420;53.150;6.370;2023-12-20T01:38:39;19.85;;;4.88;;
52508;SDS011;38420;53.150;6.370;2023-12-20T01:41:05;11.48;;;2.88;;
52508;SDS011;38420;53.150;6.370;2023-12-20T01:43:30;16.65;;;3.38;;
52508;SDS011;38420;53.150;6.370;2023-12-20T01:45:57;19.08;;;3.45;;
52508;SDS011;38420;53.150;6.370;2023-12-20T01:48:23;12.88;;;3.17;;
52508;SDS011;38420;53.150;6.370;2023-12-20T01:50:50;11.73;;;3.15;;
52508;SDS011;38420;53.150;6.370;2023-12-20T01:53:16;16.40;;;4.07;;
52508;SDS011;38420;53.150;6.370;2023-12-20T01:55:44;12.27;;;2.03;;
52508;SDS011;38420;53.150;6.370;2023-12-20T01:58:10;15.13;;;3.70;;
52508;SDS011;38420;53.150;6.370;2023-12-20T02:00:37;20.75;;;3.53;;
52508;SDS011;38420;53.150;6.370;2023-12-20T02:03:03;15.10;;;3.90;;
52508;SDS011;38420;53.150;6.370;2023-12-20T02:05:29;26.80;;;4.20;;
52508;SDS011;38420;53.150;6.370;2023-12-20T02:07:56;18.17;;;4.03;;
52508;SDS011;38420;53.150;6.370;2023-12-20T02:10:22;24.67;;;4.32;;
52508;SDS011;38420;53.150;6.370;2023-12-20T02:12:48;27.05;;;5.25;;
52508;SDS011;38420;53.150;6.370;2023-12-20T02:15:13;23.02;;;4.03;;
52508;SDS011;38420;53.150;6.370;2023-12-20T02:17:39;21.88;;;5.03;;
52508;SDS011;38420;53.150;6.370;2023-12-20T02:20:05;28.48;;;5.55;;
52508;SDS011;38420;53.150;6.370;2023-12-20T02:22:31;20.73;;;5.03;;
52508;SDS011;38420;53.150;6.370;2023-12-20T02:24:57;25.05;;;4.00;;
52508;SDS011;38420;53.150;6.370;2023-12-20T02:27:23;26.92;;;4.57;;
52508;SDS011;38420;53.150;6.370;2023-12-20T02:29:49;24.42;;;4.25;;
52508;SDS011;38420;53.150;6.370;2023-12-20T02:32:18;27.73;;;4.35;;
52508;SDS011;38420;53.150;6.370;2023-12-20T02:34:46;26.85;;;3.55;;
52508;SDS011;38420;53.150;6.370;2023-12-20T02:37:12;20.70;;;5.13;;
52508;SDS011;38420;53.150;6.370;2023-12-20T02:39:38;18.17;;;3.92;;
52508;SDS011;38420;53.150;6.370;2023-12-20T02:42:04;22.70;;;4.75;;
52508;SDS011;38420;53.150;6.370;2023-12-20T02:44:29;19.77;;;3.80;;
52508;SDS011;38420;53.150;6.370;2023-12-20T02:46:55;26.70;;;4.68;;
52508;SDS011;38420;53.150;6.370;2023-12-20T02:49:20;22.58;;;3.95;;
52508;SDS011;38420;53.150;6.370;2023-12-20T02:51:46;23.35;;;3.80;;
52508;SDS011;38420;53.150;6.370;2023-12-20T02:54:12;26.70;;;4.93;;
52508;SDS011;38420;53.150;6.370;2023-12-20T02:56:38;31.55;;;5.20;;
52508;SDS011;38420;53.150;6.370;2023-12-20T02:59:03;24.02;;;4.40;;
52508;SDS011;38420;53.150;6.370;2023-12-20T03:01:33;25.77;;;4.80;;
52508;SDS011;38420;53.150;6.370;2023-12-20T03:03:59;30.52;;;4.05;;
52508;SDS011;38420;53.150;6.370;2023-12-20T03:06:25;24.10;;;4.15;;
52508;SDS011;38420;53.150;6.370;2023-12-20T03:08:51;26.77;;;5.53;;
52508;SDS011;38420;53.150;6.370;2023-12-20T03:11:17;24.13;;;4.45;;
52508;SDS011;38420;53.150;6.370;2023-12-20T03:13:42;36.45;;;5.15;;
52508;SDS011;38420;53.150;6.370;2023-12-20T03:16:11;28.65;;;4.85;;
52508;SDS011;38420;53.150;6.370;2023-12-20T03:18:37;28.05;;;5.10;;
52508;SDS011;38420;53.150;6.370;2023-12-20T03:21:04;32.63;;;4.32;;
52508;SDS011;38420;53.150;6.370;2023-12-20T03:23:30;23.90;;;4.68;;
52508;SDS011;38420;53.150;6.370;2023-12-20T03:25:57;21.60;;;4.25;;
52508;SDS011;38420;53.150;6.370;2023-12-20T03:28:23;21.85;;;4.05;;
52508;SDS011;38420;53.150;6.370;2023-12-20T03:30:49;34.38;;;4.85;;
52508;SDS011;38420;53.150;6.370;2023-12-20T03:33:14;30.58;;;5.13;;
52508;SDS011;38420;53.150;6.370;2023-12-20T03:35:40;32.17;;;4.85;;
52508;SDS011;38420;53.150;6.370;2023-12-20T03:38:06;29.55;;;5.47;;
52508;SDS011;38420;53.150;6.370;2023-12-20T03:40:32;25.27;;;4.93;;
52508;SDS011;38420;53.150;6.370;2023-12-20T03:42:57;22.05;;;3.92;;
52508;SDS011;38420;53.150;6.370;2023-12-20T03:45:23;28.38;;;4.18;;
52508;SDS011;38420;53.150;6.370;2023-12-20T03:47:49;19.88;;;4.40;;
52508;SDS011;38420;53.150;6.370;2023-12-20T03:50:14;22.60;;;3.88;;
52508;SDS011;38420;53.150;6.370;2023-12-20T03:52:40;37.55;;;5.07;;
52508;SDS011;38420;53.150;6.370;2023-12-20T03:55:06;20.52;;;4.22;;
52508;SDS011;38420;53.150;6.370;2023-12-20T03:57:31;26.00;;;4.00;;
52508;SDS011;38420;53.150;6.370;2023-12-20T03:59:57;27.63;;;5.28;;
52508;SDS011;38420;53.150;6.370;2023-12-20T04:02:23;22.92;;;3.90;;
52508;SDS011;38420;53.150;6.370;2023-12-20T04:04:48;24.58;;;5.10;;
52508;SDS011;38420;53.150;6.370;2023-12-20T04:07:14;17.83;;;5.43;;
52508;SDS011;38420;53.150;6.370;2023-12-20T04:09:40;23.63;;;4.47;;
52508;SDS011;38420;53.150;6.370;2023-12-20T04:12:06;28.77;;;4.32;;
52508;SDS011;38420;53.150;6.370;2023-12-20T04:14:32;21.50;;;3.45;;
52508;SDS011;38420;53.150;6.370;2023-12-20T04:16:57;25.15;;;4.70;;
52508;SDS011;38420;53.150;6.370;2023-12-20T04:19:23;24.95;;;4.22;;
52508;SDS011;38420;53.150;6.370;2023-12-20T04:21:49;20.63;;;3.60;;
52508;SDS011;38420;53.150;6.370;2023-12-20T04:24:14;26.50;;;6.25;;
52508;SDS011;38420;53.150;6.370;2023-12-20T04:26:40;19.92;;;3.53;;
52508;SDS011;38420;53.150;6.370;2023-12-20T04:29:06;28.20;;;3.60;;
52508;SDS011;38420;53.150;6.370;2023-12-20T04:31:31;31.30;;;4.38;;
52508;SDS011;38420;53.150;6.370;2023-12-20T04:33:57;26.73;;;3.40;;
52508;SDS011;38420;53.150;6.370;2023-12-20T04:36:22;27.60;;;4.22;;
52508;SDS011;38420;53.150;6.370;2023-12-20T04:38:50;35.10;;;4.30;;
52508;SDS011;38420;53.150;6.370;2023-12-20T04:41:15;24.95;;;4.00;;
52508;SDS011;38420;53.150;6.370;2023-12-20T04:43:41;21.40;;;4.43;;
52508;SDS011;38420;53.150;6.370;2023-12-20T04:46:07;20.63;;;3.92;;
52508;SDS011;38420;53.150;6.370;2023-12-20T04:48:32;26.15;;;4.35;;
52508;SDS011;38420;53.150;6.370;2023-12-20T04:50:58;29.95;;;4.38;;
52508;SDS011;38420;53.150;6.370;2023-12-20T04:53:23;22.42;;;3.85;;
52508;SDS011;38420;53.150;6.370;2023-12-20T04:55:49;23.85;;;4.22;;
52508;SDS011;38420;53.150;6.370;2023-12-20T04:58:14;19.63;;;3.90;;
52508;SDS011;38420;53.150;6.370;2023-12-20T05:00:40;33.10;;;3.83;;
52508;SDS011;38420;53.150;6.370;2023-12-20T05:03:06;26.25;;;4.05;;
52508;SDS011;38420;53.150;6.370;2023-12-20T05:05:31;29.58;;;3.65;;
52508;SDS011;38420;53.150;6.370;2023-12-20T05:07:57;19.85;;;3.25;;
52508;SDS011;38420;53.150;6.370;2023-12-20T05:10:22;20.88;;;3.70;;
52508;SDS011;38420;53.150;6.370;2023-12-20T05:12:48;24.02;;;3.53;;
52508;SDS011;38420;53.150;6.370;2023-12-20T05:15:13;21.48;;;3.58;;
52508;SDS011;38420;53.150;6.370;2023-12-20T05:17:39;25.42;;;3.55;;
52508;SDS011;38420;53.150;6.370;2023-12-20T05:20:05;25.08;;;4.28;;
52508;SDS011;38420;53.150;6.370;2023-12-20T05:22:31;23.00;;;3.67;;
52508;SDS011;38420;53.150;6.370;2023-12-20T05:24:56;18.38;;;3.17;;
52508;SDS011;38420;53.150;6.370;2023-12-20T05:27:22;28.60;;;4.68;;
52508;SDS011;38420;53.150;6.370;2023-12-20T05:29:47;26.00;;;5.35;;
52508;SDS011;38420;53.150;6.370;2023-12-20T05:32:13;23.83;;;3.20;;
52508;SDS011;38420;53.150;6.370;2023-12-20T05:34:39;20.52;;;3.60;;
52508;SDS011;38420;53.150;6.370;2023-12-20T05:37:04;25.77;;;4.50;;
52508;SDS011;38420;53.150;6.370;2023-12-20T05:39:30;21.23;;;3.72;;
52508;SDS011;38420;53.150;6.370;2023-12-20T05:41:56;22.75;;;3.92;;
52508;SDS011;38420;53.150;6.370;2023-12-20T05:44:21;12.23;;;2.97;;
52508;SDS011;38420;53.150;6.370;2023-12-20T05:46:47;13.00;;;3.20;;
52508;SDS011;38420;53.150;6.370;2023-12-20T05:49:12;24.60;;;3.35;;
52508;SDS011;38420;53.150;6.370;2023-12-20T05:51:38;25.13;;;5.35;;
52508;SDS011;38420;53.150;6.370;2023-12-20T05:54:04;19.70;;;3.33;;
52508;SDS011;38420;53.150;6.370;2023-12-20T05:56:30;20.40;;;3.53;;
52508;SDS011;38420;53.150;6.370;2023-12-20T05:58:55;19.27;;;3.72;;
52508;SDS011;38420;53.150;6.370;2023-12-20T06:01:21;19.90;;;3.92;;
52508;SDS011;38420;53.150;6.370;2023-12-20T06:03:47;22.13;;;3.90;;
52508;SDS011;38420;53.150;6.370;2023-12-20T06:06:12;26.10;;;4.05;;
52508;SDS011;38420;53.150;6.370;2023-12-20T06:08:38;26.27;;;3.50;;
52508;SDS011;38420;53.150;6.370;2023-12-20T06:11:04;25.80;;;5.57;;
52508;SDS011;38420;53.150;6.370;2023-12-20T06:13:30;19.35;;;3.40;;
52508;SDS011;38420;53.150;6.370;2023-12-20T06:15:56;26.10;;;4.18;;
52508;SDS011;38420;53.150;6.370;2023-12-20T06:18:22;30.40;;;5.15;;
52508;SDS011;38420;53.150;6.370;2023-12-20T06:20:48;21.63;;;4.55;;
52508;SDS011;38420;53.150;6.370;2023-12-20T06:23:13;26.00;;;4.53;;
52508;SDS011;38420;53.150;6.370;2023-12-20T06:25:39;18.45;;;3.63;;
52508;SDS011;38420;53.150;6.370;2023-12-20T06:28:04;24.20;;;3.20;;
52508;SDS011;38420;53.150;6.370;2023-12-20T06:30:31;25.52;;;3.38;;
52508;SDS011;38420;53.150;6.370;2023-12-20T06:32:57;23.90;;;3.25;;
52508;SDS011;38420;53.150;6.370;2023-12-20T06:35:23;16.10;;;3.28;;
52508;SDS011;38420;53.150;6.370;2023-12-20T06:37:49;17.27;;;3.35;;
52508;SDS011;38420;53.150;6.370;2023-12-20T06:40:15;15.43;;;2.40;;
52508;SDS011;38420;53.150;6.370;2023-12-20T06:42:41;21.48;;;4.32;;
52508;SDS011;38420;53.150;6.370;2023-12-20T06:45:07;25.55;;;4.53;;
52508;SDS011;38420;53.150;6.370;2023-12-20T06:47:32;19.63;;;4.25;;
52508;SDS011;38420;53.150;6.370;2023-12-20T06:49:58;26.92;;;4.20;;
52508;SDS011;38420;53.150;6.370;2023-12-20T06:52:24;19.30;;;3.97;;
52508;SDS011;38420;53.150;6.370;2023-12-20T06:54:49;28.67;;;3.78;;
52508;SDS011;38420;53.150;6.370;2023-12-20T06:57:15;25.52;;;4.00;;
52508;SDS011;38420;53.150;6.370;2023-12-20T06:59:41;15.65;;;3.78;;
52508;SDS011;38420;53.150;6.370;2023-12-20T07:02:07;26.25;;;4.13;;
52508;SDS011;38420;53.150;6.370;2023-12-20T07:04:33;23.48;;;4.35;;
52508;SDS011;38420;53.150;6.370;2023-12-20T07:06:59;21.90;;;3.95;;
52508;SDS011;38420;53.150;6.370;2023-12-20T07:09:28;25.52;;;4.32;;
52508;SDS011;38420;53.150;6.370;2023-12-20T07:11:53;22.98;;;4.20;;
52508;SDS011;38420;53.150;6.370;2023-12-20T07:14:19;28.17;;;4.85;;
52508;SDS011;38420;53.150;6.370;2023-12-20T07:16:45;20.02;;;3.25;;
52508;SDS011;38420;53.150;6.370;2023-12-20T07:19:10;22.20;;;4.32;;
52508;SDS011;38420;53.150;6.370;2023-12-20T07:21:36;20.90;;;3.70;;
52508;SDS011;38420;53.150;6.370;2023-12-20T07:24:01;29.70;;;5.53;;
52508;SDS011;38420;53.150;6.370;2023-12-20T07:26:27;22.77;;;4.25;;
52508;SDS011;38420;53.150;6.370;2023-12-20T07:28:52;22.67;;;4.93;;
52508;SDS011;38420;53.150;6.370;2023-12-20T07:31:18;25.88;;;4.50;;
52508;SDS011;38420;53.150;6.370;2023-12-20T07:33:43;20.50;;;3.88;;
52508;SDS011;38420;53.150;6.370;2023-12-20T07:36:09;18.35;;;3.80;;
52508;SDS011;38420;53.150;6.370;2023-12-20T07:38:35;23.67;;;4.65;;
52508;SDS011;38420;53.150;6.370;2023-12-20T07:41:00;28.25;;;4.82;;
52508;SDS011;38420;53.150;6.370;2023-12-20T07:43:26;29.63;;;4.15;;
52508;SDS011;38420;53.150;6.370;2023-12-20T07:45:52;22.52;;;4.10;;
52508;SDS011;38420;53.150;6.370;2023-12-20T07:48:17;22.27;;;4.95;;
52508;SDS011;38420;53.150;6.370;2023-12-20T07:50:43;21.10;;;3.90;;
52508;SDS011;38420;53.150;6.370;2023-12-20T07:53:08;25.73;;;3.78;;
52508;SDS011;38420;53.150;6.370;2023-12-20T07:55:34;27.73;;;4.07;;
52508;SDS011;38420;53.150;6.370;2023-12-20T07:57:59;18.77;;;3.47;;
52508;SDS011;38420;53.150;6.370;2023-12-20T08:00:25;16.27;;;3.55;;
52508;SDS011;38420;53.150;6.370;2023-12-20T08:02:51;19.15;;;3.20;;
52508;SDS011;38420;53.150;6.370;2023-12-20T08:05:17;27.25;;;5.03;;
52508;SDS011;38420;53.150;6.370;2023-12-20T08:07:42;25.23;;;4.45;;
52508;SDS011;38420;53.150;6.370;2023-12-20T08:10:08;24.38;;;6.05;;
52508;SDS011;38420;53.150;6.370;2023-12-20T08:12:34;24.05;;;4.68;;
52508;SDS011;38420;53.150;6.370;2023-12-20T08:15:00;30.23;;;4.28;;
52508;SDS011;38420;53.150;6.370;2023-12-20T08:17:27;22.38;;;5.13;;
52508;SDS011;38420;53.150;6.370;2023-12-20T08:19:53;17.83;;;4.22;;
52508;SDS011;38420;53.150;6.370;2023-12-20T08:22:18;25.75;;;5.43;;
52508;SDS011;38420;53.150;6.370;2023-12-20T08:24:44;23.23;;;4.97;;
52508;SDS011;38420;53.150;6.370;2023-12-20T08:27:10;19.52;;;4.30;;
52508;SDS011;38420;53.150;6.370;2023-12-20T08:29:35;24.63;;;4.82;;
52508;SDS011;38420;53.150;6.370;2023-12-20T08:32:01;29.52;;;3.85;;
52508;SDS011;38420;53.150;6.370;2023-12-20T08:34:27;23.75;;;4.15;;
52508;SDS011;38420;53.150;6.370;2023-12-20T08:36:53;18.80;;;3.60;;
52508;SDS011;38420;53.150;6.370;2023-12-20T08:39:19;18.25;;;4.03;;
52508;SDS011;38420;53.150;6.370;2023-12-20T08:41:44;21.77;;;5.75;;
52508;SDS011;38420;53.150;6.370;2023-12-20T08:44:10;27.45;;;4.90;;
52508;SDS011;38420;53.150;6.370;2023-12-20T08:46:35;18.13;;;3.75;;
52508;SDS011;38420;53.150;6.370;2023-12-20T08:49:01;16.60;;;4.32;;
52508;SDS011;38420;53.150;6.370;2023-12-20T08:51:27;25.50;;;3.33;;
52508;SDS011;38420;53.150;6.370;2023-12-20T08:53:53;24.63;;;4.57;;
52508;SDS011;38420;53.150;6.370;2023-12-20T08:56:19;24.20;;;4.03;;
52508;SDS011;38420;53.150;6.370;2023-12-20T08:58:45;26.70;;;4.43;;
52508;SDS011;38420;53.150;6.370;2023-12-20T09:01:12;22.90;;;5.53;;
52508;SDS011;38420;53.150;6.370;2023-12-20T09:03:38;18.52;;;3.45;;
52508;SDS011;38420;53.150;6.370;2023-12-20T09:06:04;7.85;;;1.67;;
52508;SDS011;38420;53.150;6.370;2023-12-20T09:08:30;10.43;;;2.22;;
52508;SDS011;38420;53.150;6.370;2023-12-20T09:10:56;10.40;;;1.42;;
52508;SDS011;38420;53.150;6.370;2023-12-20T09:13:22;7.40;;;1.40;;
52508;SDS011;38420;53.150;6.370;2023-12-20T09:15:53;8.93;;;1.77;;
52508;SDS011;38420;53.150;6.370;2023-12-20T09:18:20;11.85;;;1.45;;
52508;SDS011;38420;53.150;6.370;2023-12-20T09:20:45;11.38;;;1.50;;
52508;SDS011;38420;53.150;6.370;2023-12-20T09:23:11;6.75;;;1.25;;
52508;SDS011;38420;53.150;6.370;2023-12-20T09:25:37;12.93;;;1.65;;
52508;SDS011;38420;53.150;6.370;2023-12-20T09:28:02;7.53;;;2.60;;
52508;SDS011;38420;53.150;6.370;2023-12-20T09:30:28;10.20;;;1.70;;
52508;SDS011;38420;53.150;6.370;2023-12-20T09:32:54;10.02;;;2.53;;
52508;SDS011;38420;53.150;6.370;2023-12-20T09:35:20;7.70;;;1.15;;
52508;SDS011;38420;53.150;6.370;2023-12-20T09:37:45;6.40;;;1.20;;
52508;SDS011;38420;53.150;6.370;2023-12-20T09:40:12;6.88;;;1.52;;
52508;SDS011;38420;53.150;6.370;2023-12-20T09:45:23;8.05;;;0.95;;
52508;SDS011;38420;53.150;6.370;2023-12-20T09:47:50;14.43;;;2.67;;
52508;SDS011;38420;53.150;6.370;2023-12-20T09:50:18;9.85;;;1.30;;
52508;SDS011;38420;53.150;6.370;2023-12-20T09:52:46;12.05;;;1.65;;
52508;SDS011;38420;53.150;6.370;2023-12-20T09:57:42;9.30;;;1.65;;
52508;SDS011;38420;53.150;6.370;2023-12-20T10:00:08;11.70;;;1.50;;
52508;SDS011;38420;53.150;6.370;2023-12-20T10:02:34;14.07;;;1.80;;
52508;SDS011;38420;53.150;6.370;2023-12-20T10:05:03;11.10;;;2.00;;
52508;SDS011;38420;53.150;6.370;2023-12-20T10:07:34;7.60;;;2.25;;
52508;SDS011;38420;53.150;6.370;2023-12-20T10:10:00;11.30;;;2.30;;
52508;SDS011;38420;53.150;6.370;2023-12-20T10:12:27;7.63;;;1.80;;
52508;SDS011;38420;53.150;6.370;2023-12-20T10:14:53;12.68;;;2.00;;
52508;SDS011;38420;53.150;6.370;2023-12-20T10:17:18;17.48;;;2.45;;
52508;SDS011;38420;53.150;6.370;2023-12-20T10:19:46;15.32;;;1.95;;
52508;SDS011;38420;53.150;6.370;2023-12-20T10:22:12;17.20;;;2.80;;
52508;SDS011;38420;53.150;6.370;2023-12-20T10:24:37;11.52;;;2.00;;
52508;SDS011;38420;53.150;6.370;2023-12-20T10:27:05;13.88;;;2.90;;
52508;SDS011;38420;53.150;6.370;2023-12-20T10:29:40;13.30;;;3.83;;
52508;SDS011;38420;53.150;6.370;2023-12-20T10:32:21;9.68;;;2.20;;
52508;SDS011;38420;53.150;6.370;2023-12-20T10:34:51;17.63;;;2.28;;
52508;SDS011;38420;53.150;6.370;2023-12-20T10:37:17;6.15;;;2.58;;
52508;SDS011;38420;53.150;6.370;2023-12-20T10:39:43;15.88;;;2.53;;
52508;SDS011;38420;53.150;6.370;2023-12-20T10:42:12;11.07;;;2.00;;
52508;SDS011;38420;53.150;6.370;2023-12-20T10:44:39;13.73;;;1.83;;
52508;SDS011;38420;53.150;6.370;2023-12-20T10:47:05;11.48;;;2.60;;
52508;SDS011;38420;53.150;6.370;2023-12-20T10:49:31;14.00;;;2.58;;
52508;SDS011;38420;53.150;6.370;2023-12-20T10:52:01;11.23;;;2.25;;
52508;SDS011;38420;53.150;6.370;2023-12-20T10:54:28;12.25;;;2.25;;
52508;SDS011;38420;53.150;6.370;2023-12-20T10:56:54;16.80;;;2.97;;
52508;SDS011;38420;53.150;6.370;2023-12-20T10:59:23;10.98;;;2.05;;
52508;SDS011;38420;53.150;6.370;2023-12-20T11:01:50;10.85;;;2.00;;
52508;SDS011;38420;53.150;6.370;2023-12-20T11:04:18;17.42;;;2.85;;
52508;SDS011;38420;53.150;6.370;2023-12-20T11:06:54;12.23;;;2.05;;
52508;SDS011;38420;53.150;6.370;2023-12-20T11:09:36;14.35;;;2.65;;
52508;SDS011;38420;53.150;6.370;2023-12-20T11:12:10;11.38;;;2.22;;
52508;SDS011;38420;53.150;6.370;2023-12-20T11:14:49;15.95;;;2.85;;
52508;SDS011;38420;53.150;6.370;2023-12-20T11:17:22;16.60;;;3.80;;
52508;SDS011;38420;53.150;6.370;2023-12-20T11:22:17;12.00;;;2.17;;
52508;SDS011;38420;53.150;6.370;2023-12-20T11:24:45;13.05;;;2.08;;
52508;SDS011;38420;53.150;6.370;2023-12-20T11:27:12;14.75;;;2.65;;
52508;SDS011;38420;53.150;6.370;2023-12-20T11:29:38;18.38;;;2.53;;
52508;SDS011;38420;53.150;6.370;2023-12-20T11:34:50;13.07;;;2.33;;
52508;SDS011;38420;53.150;6.370;2023-12-20T11:37:16;14.98;;;2.33;;
52508;SDS011;38420;53.150;6.370;2023-12-20T11:39:44;16.63;;;2.72;;
52508;SDS011;38420;53.150;6.370;2023-12-20T11:42:09;19.90;;;3.17;;
52508;SDS011;38420;53.150;6.370;2023-12-20T11:44:36;14.77;;;2.63;;
52508;SDS011;38420;53.150;6.370;2023-12-20T11:47:02;15.25;;;2.30;;
52508;SDS011;38420;53.150;6.370;2023-12-20T11:49:28;21.08;;;2.83;;
52508;SDS011;38420;53.150;6.370;2023-12-20T11:51:55;17.63;;;3.25;;
52508;SDS011;38420;53.150;6.370;2023-12-20T11:54:21;11.98;;;2.55;;
52508;SDS011;38420;53.150;6.370;2023-12-20T11:56:47;11.18;;;2.85;;
52508;SDS011;38420;53.150;6.370;2023-12-20T11:59:14;21.00;;;2.58;;
52508;SDS011;38420;53.150;6.370;2023-12-20T12:01:40;11.82;;;2.53;;
52508;SDS011;38420;53.150;6.370;2023-12-20T12:04:12;8.40;;;2.35;;
52508;SDS011;38420;53.150;6.370;2023-12-20T12:06:37;15.15;;;2.13;;
52508;SDS011;38420;53.150;6.370;2023-12-20T12:09:03;17.67;;;2.88;;
52508;SDS011;38420;53.150;6.370;2023-12-20T12:11:29;15.75;;;2.60;;
52508;SDS011;38420;53.150;6.370;2023-12-20T12:13:55;14.10;;;2.55;;
52508;SDS011;38420;53.150;6.370;2023-12-20T12:16:21;14.35;;;2.83;;
52508;SDS011;38420;53.150;6.370;2023-12-20T12:18:54;10.68;;;2.95;;
52508;SDS011;38420;53.150;6.370;2023-12-20T12:21:23;20.00;;;2.88;;
52508;SDS011;38420;53.150;6.370;2023-12-20T12:23:49;19.65;;;2.58;;
52508;SDS011;38420;53.150;6.370;2023-12-20T12:26:14;12.65;;;2.40;;
52508;SDS011;38420;53.150;6.370;2023-12-20T12:28:40;12.95;;;2.38;;
52508;SDS011;38420;53.150;6.370;2023-12-20T12:31:07;16.73;;;2.72;;
52508;SDS011;38420;53.150;6.370;2023-12-20T12:33:33;20.55;;;2.55;;
52508;SDS011;38420;53.150;6.370;2023-12-20T12:36:00;17.73;;;3.20;;
52508;SDS011;38420;53.150;6.370;2023-12-20T12:38:26;9.00;;;2.25;;
52508;SDS011;38420;53.150;6.370;2023-12-20T12:40:52;9.88;;;2.35;;
52508;SDS011;38420;53.150;6.370;2023-12-20T12:43:19;8.55;;;2.33;;
52508;SDS011;38420;53.150;6.370;2023-12-20T12:45:45;12.85;;;2.25;;
52508;SDS011;38420;53.150;6.370;2023-12-20T12:48:10;16.08;;;2.42;;
52508;SDS011;38420;53.150;6.370;2023-12-20T12:50:36;13.75;;;2.72;;
52508;SDS011;38420;53.150;6.370;2023-12-20T12:53:02;24.63;;;3.13;;
52508;SDS011;38420;53.150;6.370;2023-12-20T12:55:28;26.90;;;4.45;;
52508;SDS011;38420;53.150;6.370;2023-12-20T12:57:54;21.38;;;2.72;;
52508;SDS011;38420;53.150;6.370;2023-12-20T13:00:19;25.25;;;3.30;;
52508;SDS011;38420;53.150;6.370;2023-12-20T13:02:46;20.10;;;2.45;;
52508;SDS011;38420;53.150;6.370;2023-12-20T13:05:12;19.05;;;2.45;;
52508;SDS011;38420;53.150;6.370;2023-12-20T13:07:38;16.05;;;3.00;;
52508;SDS011;38420;53.150;6.370;2023-12-20T13:10:04;15.00;;;2.90;;
52508;SDS011;38420;53.150;6.370;2023-12-20T13:12:31;11.05;;;2.00;;
52508;SDS011;38420;53.150;6.370;2023-12-20T13:14:57;17.50;;;2.20;;
52508;SDS011;38420;53.150;6.370;2023-12-20T13:17:23;11.68;;;2.50;;
52508;SDS011;38420;53.150;6.370;2023-12-20T13:19:48;10.05;;;2.05;;
52508;SDS011;38420;53.150;6.370;2023-12-20T13:22:14;15.32;;;2.20;;
52508;SDS011;38420;53.150;6.370;2023-12-20T13:24:40;16.83;;;3.17;;
52508;SDS011;38420;53.150;6.370;2023-12-20T13:27:06;9.32;;;1.85;;
52508;SDS011;38420;53.150;6.370;2023-12-20T13:29:31;14.10;;;2.70;;
52508;SDS011;38420;53.150;6.370;2023-12-20T13:31:57;7.47;;;1.42;;
52508;SDS011;38420;53.150;6.370;2023-12-20T13:34:23;10.70;;;1.75;;
52508;SDS011;38420;53.150;6.370;2023-12-20T13:36:48;9.35;;;1.40;;
52508;SDS011;38420;53.150;6.370;2023-12-20T13:39:15;8.52;;;2.47;;
52508;SDS011;38420;53.150;6.370;2023-12-20T13:41:41;12.07;;;3.15;;
52508;SDS011;38420;53.150;6.370;2023-12-20T13:44:07;13.10;;;2.53;;
52508;SDS011;38420;53.150;6.370;2023-12-20T13:46:33;10.18;;;1.60;;
52508;SDS011;38420;53.150;6.370;2023-12-20T13:48:58;14.25;;;2.22;;
52508;SDS011;38420;53.150;6.370;2023-12-20T13:51:24;13.88;;;2.05;;
52508;SDS011;38420;53.150;6.370;2023-12-20T13:53:50;7.35;;;1.38;;
52508;SDS011;38420;53.150;6.370;2023-12-20T13:56:15;10.75;;;1.63;;
52508;SDS011;38420;53.150;6.370;2023-12-20T13:58:41;6.65;;;1.30;;
52508;SDS011;38420;53.150;6.370;2023-12-20T14:01:07;13.73;;;2.88;;
52508;SDS011;38420;53.150;6.370;2023-12-20T14:03:34;7.95;;;1.23;;
52508;SDS011;38420;53.150;6.370;2023-12-20T14:05:59;10.82;;;1.40;;
52508;SDS011;38420;53.150;6.370;2023-12-20T14:08:26;7.15;;;1.40;;
52508;SDS011;38420;53.150;6.370;2023-12-20T14:10:52;7.32;;;1.35;;
52508;SDS011;38420;53.150;6.370;2023-12-20T14:13:18;8.68;;;1.48;;
52508;SDS011;38420;53.150;6.370;2023-12-20T14:15:44;8.77;;;1.25;;
52508;SDS011;38420;53.150;6.370;2023-12-20T14:18:09;10.10;;;1.80;;
52508;SDS011;38420;53.150;6.370;2023-12-20T14:20:37;8.70;;;1.55;;
52508;SDS011;38420;53.150;6.370;2023-12-20T14:23:04;6.78;;;1.80;;
52508;SDS011;38420;53.150;6.370;2023-12-20T14:25:30;9.90;;;1.55;;
52508;SDS011;38420;53.150;6.370;2023-12-20T14:27:58;9.15;;;1.65;;
52508;SDS011;38420;53.150;6.370;2023-12-20T14:30:25;9.90;;;1.65;;
52508;SDS011;38420;53.150;6.370;2023-12-20T14:32:50;8.40;;;1.60;;
52508;SDS011;38420;53.150;6.370;2023-12-20T14:35:16;8.73;;;1.30;;
52508;SDS011;38420;53.150;6.370;2023-12-20T14:37:41;10.98;;;1.80;;
52508;SDS011;38420;53.150;6.370;2023-12-20T14:40:07;8.02;;;2.15;;